Latest Weather Observations for Noarlunga

IDS60801

Issued at 3:31 pm CST Wednesday 4 May 2016 (issued every 30 minutes, with the page automatically refreshed every 10 minutes)

About weather observations | Map of weather stations | Latest weather observations for SA | Other Formats
Station Details ID: 023885 Name: NOARLUNGA Lat: -35.16 Lon: 138.51 Height: 55.0 m
Data from the previous 72 hours. | See also: Recent months at Noarlunga
Date/Time
CST
Temp
°C
App
Temp
°C
Dew
Point
Rel
Hum
%
Delta-T
°C
Wind Press
QNH
hPa
Press
MSL
hPa
Rain
since 9 am
mm
Dir
 
Spd
km/h
Gust
km/h
Spd
kts
Gust
kts
04/03:30pm 16.5 14.3 12.1 75 2.4 N 15 24 8 13 - - 0.0
04/03:00pm 16.1 13.3 11.5 74 2.5 N 17 24 9 13 - - 0.0
04/02:30pm 16.9 14.2 11.6 71 2.9 NNW 17 24 9 13 - - 0.0
04/02:00pm 16.9 13.9 10.7 67 3.3 NNW 17 26 9 14 - - 0.0
04/01:30pm 17.2 14.4 11.2 68 3.2 N 17 26 9 14 - - 0.0
04/01:00pm 16.3 13.5 11.5 73 2.6 NNW 17 26 9 14 - - 0.0
04/12:30pm 16.0 12.5 11.0 72 2.7 WNW 20 32 11 17 - - 0.0
04/12:00pm 15.9 12.4 10.2 69 3.0 NNW 19 28 10 15 - - 0.0
04/11:30am 16.5 12.9 9.9 65 3.5 NW 19 32 10 17 - - 0.0
04/11:00am 16.2 13.1 8.9 62 3.8 NW 15 24 8 13 - - 0.0
04/10:30am 16.4 13.7 9.1 62 3.8 NW 13 20 7 11 - - 0.0
04/10:00am 16.7 14.2 9.6 63 3.7 NW 13 19 7 10 - - 0.0
04/09:30am 16.2 13.7 9.8 66 3.4 WNW 13 20 7 11 - - 0.0
04/09:00am 14.9 12.9 10.3 74 2.4 NW 11 19 6 10 - - 4.8
04/08:30am 15.0 13.7 9.8 71 2.7 NNW 7 15 4 8 - - 4.8
04/08:00am 14.8 14.1 10.0 73 2.5 NW 4 7 2 4 - - 4.8
04/07:30am 13.3 12.4 9.4 77 2.0 WNW 4 7 2 4 - - 4.8
04/07:00am 13.3 12.3 9.0 75 2.2 W 4 6 2 3 - - 4.8
04/06:30am 13.8 12.2 8.8 72 2.5 W 7 17 4 9 - - 4.8
04/06:00am 13.9 12.4 9.1 73 2.4 W 7 13 4 7 - - 4.8
04/05:30am 13.7 11.8 9.0 73 2.4 W 9 17 5 9 - - 4.8
04/05:00am 13.3 10.9 8.8 74 2.3 WSW 11 17 6 9 - - 4.8
04/04:30am 12.4 11.2 9.6 83 1.4 W 6 9 3 5 - - 4.8
04/04:00am 12.4 11.6 9.6 83 1.4 WNW 4 6 2 3 - - 4.8
04/03:30am 13.1 10.0 10.3 83 1.5 W 17 26 9 14 - - 4.8
04/03:00am 12.0 11.3 9.9 87 1.1 NW 4 6 2 3 - - 4.8
04/02:30am 12.4 12.1 10.1 86 1.2 WSW 2 6 1 3 - - 4.8
04/02:00am 12.9 10.2 10.3 84 1.3 WSW 15 24 8 13 - - 4.6
04/01:30am 13.9 11.9 8.7 71 2.6 WNW 9 15 5 8 - - 3.6
04/01:00am 14.4 12.2 9.4 72 2.6 WNW 11 17 6 9 - - 3.6
04/12:30am 14.1 12.4 9.7 75 2.3 WSW 9 15 5 8 - - 3.6
04/12:00am 13.7 10.8 9.7 77 2.1 WSW 15 26 8 14 - - 3.6
 
Date/Time
CST
Temp
°C
App
Temp
°C
Dew
Point
Rel
Hum
%
Delta-T
°C
Wind Press
QNH
hPa
Press
MSL
hPa
Rain
since 9 am
mm
Dir
 
Spd
km/h
Gust
km/h
Spd
kts
Gust
kts
03/11:30pm 14.2 12.3 9.0 71 2.6 W 9 15 5 8 - - 3.6
03/11:00pm 13.0 12.3 10.2 83 1.4 NW 4 7 2 4 - - 3.6
03/10:30pm 13.3 12.1 10.3 82 1.6 W 7 15 4 8 - - 3.6
03/10:00pm 13.5 12.4 10.5 82 1.6 W 7 15 4 8 - - 3.2
03/09:30pm 14.7 13.0 9.7 72 2.6 WNW 9 15 5 8 - - 2.6
03/09:00pm 14.7 12.1 9.5 71 2.7 W 13 28 7 15 - - 2.6
03/08:30pm 13.8 12.0 10.8 82 1.6 WSW 11 20 6 11 - - 2.6
03/08:10pm 14.0 9.1 11.2 83 1.5 WSW 28 48 15 26 - - 2.6
03/08:00pm 15.7 11.9 9.1 65 3.4 W 19 28 10 15 - - 2.6
03/07:30pm 15.2 11.5 10.2 72 2.6 W 20 33 11 18 - - 2.6
03/07:00pm 15.5 11.1 9.0 65 3.3 W 22 35 12 19 - - 2.6
03/06:30pm 15.7 11.7 9.1 65 3.4 WSW 20 41 11 22 - - 2.6
03/06:00pm 16.0 10.6 8.0 59 4.0 W 26 39 14 21 - - 2.6
03/05:30pm 16.1 11.0 7.8 58 4.2 W 24 41 13 22 - - 2.6
03/05:00pm 16.2 11.5 9.4 64 3.5 W 24 41 13 22 - - 2.6
03/04:35pm 16.3 10.8 9.0 62 3.8 W 28 48 15 26 - - 2.6
03/04:30pm 16.4 10.7 9.8 65 3.5 W 30 46 16 25 - - 2.6
03/04:00pm 16.7 12.8 12.0 74 2.6 W 24 39 13 21 - - 2.6
03/03:34pm 16.2 11.6 12.2 77 2.2 W 28 46 15 25 - - 2.6
03/03:30pm 15.9 10.8 11.9 77 2.2 W 30 46 16 25 - - 2.6
03/03:09pm 16.3 11.0 11.2 72 2.7 W 30 54 16 29 - - 2.6
03/03:00pm 16.3 12.5 12.3 77 2.2 W 24 44 13 24 - - 2.6
03/02:30pm 15.0 9.8 12.7 86 1.3 WSW 32 52 17 28 - - 2.4
03/02:18pm 16.9 12.4 12.6 76 2.4 WNW 28 46 15 25 - - 2.2
03/02:00pm 16.6 12.5 12.8 78 2.1 W 26 43 14 23 - - 2.2
03/01:30pm 15.1 10.4 13.1 88 1.1 W 30 56 16 30 - - 2.2
03/01:14pm 15.8 11.5 13.3 85 1.4 W 28 56 15 30 - - 1.6
03/01:00pm 17.3 13.2 12.6 74 2.6 WNW 26 44 14 24 - - 0.2
03/12:30pm 18.8 15.0 12.5 67 3.5 WNW 24 39 13 21 - - 0.2
03/12:00pm 18.0 14.1 12.0 68 3.3 WNW 24 43 13 23 - - 0.2
03/11:30am 18.8 14.6 12.3 66 3.6 WNW 26 39 14 21 - - 0.2
03/11:00am 18.2 14.6 13.1 72 2.9 WNW 24 37 13 20 - - 0.2
03/10:30am 17.4 13.4 13.1 76 2.4 WNW 26 39 14 21 - - 0.2
03/10:00am 16.1 11.9 13.4 84 1.5 WNW 28 43 15 23 - - 0.2
03/09:32am 16.3 11.3 13.4 83 1.6 WNW 32 50 17 27 - - 0.0
03/09:30am 16.6 11.6 13.5 82 1.7 WNW 32 44 17 24 - - 0.0
03/09:00am 15.9 10.8 13.6 86 1.3 NW 33 57 18 31 - - 2.4
03/08:30am 16.0 10.6 14.0 88 1.1 NW 35 61 19 33 - - 1.8
03/08:00am 17.3 11.2 13.0 76 2.4 NW 37 63 20 34 - - 1.2
03/07:32am 17.1 11.7 12.8 76 2.4 NW 33 54 18 29 - - 1.2
03/07:30am 17.1 11.7 12.8 76 2.4 NW 33 50 18 27 - - 1.2
03/07:00am 16.9 10.6 12.4 75 2.5 NNW 37 52 20 28 - - 1.2
03/06:45am 16.8 11.3 12.3 75 2.5 NW 33 54 18 29 - - 1.2
03/06:30am 16.7 11.1 12.0 74 2.6 NW 33 52 18 28 - - 1.2
03/06:00am 16.8 10.8 12.1 74 2.6 NW 35 57 19 31 - - 1.2
03/05:30am 16.8 11.3 12.3 75 2.5 NW 33 54 18 29 - - 1.2
03/05:00am 16.7 10.7 12.0 74 2.6 NW 35 59 19 32 - - 1.2
03/04:30am 16.8 10.7 11.7 72 2.8 NW 35 56 19 30 - - 1.2
03/04:00am 16.5 11.0 11.9 74 2.5 NW 32 50 17 27 - - 1.2
03/03:40am 16.8 11.1 11.7 72 2.8 NW 33 56 18 30 - - 1.2
03/03:30am 16.8 11.1 11.9 73 2.7 NW 33 50 18 27 - - 1.2
03/03:00am 16.9 11.4 12.0 73 2.7 NNW 32 52 17 28 - - 1.2
03/02:31am 17.0 12.2 11.7 71 2.9 NNW 28 48 15 26 - - 1.2
03/02:30am 17.0 12.7 11.9 72 2.8 NNW 26 48 14 26 - - 1.2
03/02:00am 16.9 12.1 11.8 72 2.8 NW 28 46 15 25 - - 1.2
03/01:30am 17.1 11.1 12.2 73 2.7 NW 35 56 19 30 - - 1.2
03/01:00am 17.2 11.6 12.1 72 2.8 NW 33 54 18 29 - - 1.2
03/12:37am 17.4 11.4 12.1 71 2.9 NW 35 56 19 30 - - 1.2
03/12:30am 17.3 12.0 12.4 73 2.7 NW 32 50 17 27 - - 1.2
03/12:00am 17.2 11.3 12.5 74 2.6 NW 35 56 19 30 - - 1.2
 
Date/Time
CST
Temp
°C
App
Temp
°C
Dew
Point
Rel
Hum
%
Delta-T
°C
Wind Press
QNH
hPa
Press
MSL
hPa
Rain
since 9 am
mm
Dir
 
Spd
km/h
Gust
km/h
Spd
kts
Gust
kts
02/11:36pm 17.1 11.9 12.8 76 2.4 NW 32 50 17 27 - - 1.2
02/11:30pm 17.1 11.7 12.8 76 2.4 NW 33 52 18 28 - - 1.2
02/11:00pm 16.7 11.2 12.5 76 2.3 NW 33 57 18 31 - - 1.2
02/10:30pm 16.2 11.5 13.1 82 1.7 NW 30 48 16 26 - - 1.2
02/10:03pm 17.8 13.0 11.6 67 3.4 NW 28 52 15 28 - - 0.2
02/10:00pm 17.8 12.9 11.4 66 3.5 NW 28 43 15 23 - - 0.2
02/09:30pm 17.6 12.5 11.9 69 3.1 NW 30 48 16 26 - - 0.2
02/09:22pm 17.4 12.3 11.9 70 3.0 NW 30 48 16 26 - - 0.2
02/09:00pm 16.6 13.5 13.5 82 1.7 NW 22 33 12 18 - - 0.2
02/08:34pm 17.7 13.1 12.4 71 2.9 NW 28 48 15 26 - - 0.0
02/08:30pm 17.6 13.9 12.7 73 2.7 NW 24 39 13 21 - - 0.0
02/08:00pm 17.7 13.6 12.8 73 2.7 NW 26 43 14 23 - - 0.0
02/07:30pm 17.4 14.4 12.7 74 2.6 NW 20 32 11 17 - - 0.0
02/07:07pm 17.7 13.1 12.2 70 3.0 NW 28 46 15 25 - - 0.0
02/07:00pm 17.7 13.2 11.5 67 3.4 NW 26 35 14 19 - - 0.0
02/06:30pm 17.0 11.4 11.5 70 3.0 WNW 32 54 17 29 - - 0.0
02/06:06pm 18.6 13.0 10.2 58 4.5 NW 30 50 16 27 - - 0.0
02/06:00pm 18.7 13.7 11.0 61 4.2 NW 28 41 15 22 - - 0.0
02/05:50pm 18.7 12.9 10.8 60 4.3 NW 32 50 17 27 - - 0.0
02/05:30pm 18.5 13.2 11.1 62 4.0 NW 30 44 16 24 - - 0.0
02/05:00pm 18.7 13.7 11.0 61 4.2 NW 28 39 15 21 - - 0.0
02/04:30pm 18.5 14.6 12.0 66 3.6 NNW 24 39 13 21 - - 0.0
02/04:00pm 18.4 13.2 11.5 64 3.8 NW 30 44 16 24 - - 0.0
02/03:30pm 18.8 13.0 10.9 60 4.3 NW 32 50 17 27 - - 0.0
02/03:00pm 18.5 13.4 10.6 60 4.3 NW 28 46 15 25 - - 0.0
02/02:58pm 18.6 13.5 10.7 60 4.3 NW 28 46 15 25 - - 0.0
02/02:30pm 18.8 13.4 10.9 60 4.3 NW 30 44 16 24 - - 0.0
02/02:00pm 18.7 12.6 10.5 59 4.4 NW 33 52 18 28 - - 0.0
02/01:37pm 18.9 13.8 10.5 58 4.5 NW 28 46 15 25 - - 0.0
02/01:30pm 18.7 13.3 10.8 60 4.3 NW 30 46 16 25 - - 0.0
02/01:02pm 19.0 13.4 10.0 56 4.8 NW 30 48 16 26 - - 0.0
02/01:00pm 18.9 12.8 9.7 55 4.9 NW 32 48 17 26 - - 0.0
02/12:46pm 19.0 13.0 10.0 56 4.8 NW 32 50 17 27 - - 0.0
02/12:30pm 18.4 12.2 9.2 55 4.8 NW 32 48 17 26 - - 0.0
02/12:00pm 18.7 13.4 9.8 56 4.7 NW 28 41 15 22 - - 0.0
02/11:30am 17.8 14.2 12.0 69 3.2 NW 22 35 12 19 - - 0.0
02/11:00am 16.2 11.3 11.2 72 2.7 NW 28 46 15 25 - - 0.0
02/10:58am 16.4 11.4 11.1 71 2.9 NW 28 46 15 25 - - 0.0
02/10:30am 16.9 11.1 9.3 61 4.0 NNW 30 44 16 24 - - 0.0
02/10:00am 16.3 10.9 9.5 64 3.5 NW 28 44 15 24 - - 0.0
02/09:30am 16.5 11.7 9.0 61 3.9 NW 24 41 13 22 - - 0.0
02/09:00am 16.4 10.8 8.6 60 4.0 NW 28 44 15 24 - - 0.0
02/08:30am 16.2 11.3 8.4 60 4.0 NW 24 43 13 23 - - 0.0
02/08:00am 16.0 10.6 8.0 59 4.0 NW 26 39 14 21 - - 0.0
02/07:30am 15.9 11.5 7.4 57 4.2 NW 20 35 11 19 - - 0.0
02/07:00am 15.8 10.9 6.8 55 4.4 NW 22 37 12 20 - - 0.0
02/06:30am 15.7 10.3 6.4 54 4.5 NW 24 43 13 23 - - 0.0
02/06:00am 15.8 9.9 6.0 52 4.7 NW 26 39 14 21 - - 0.0
02/05:30am 16.0 10.9 5.9 51 4.9 NW 22 33 12 18 - - 0.0
02/05:00am 16.0 11.1 5.3 49 5.1 NW 20 33 11 18 - - 0.0
02/04:30am 16.0 11.0 4.7 47 5.3 NW 20 35 11 19 - - 0.0
02/04:00am 16.0 10.0 3.4 43 5.8 NW 24 39 13 21 - - 0.0
02/03:30am 15.8 9.6 4.2 46 5.4 NW 26 44 14 24 - - 0.0
02/03:00am 15.4 10.6 7.2 58 4.1 NNW 22 37 12 20 - - 0.0
02/02:30am 15.5 11.2 7.8 60 3.9 NNW 20 33 11 18 - - 0.0
02/02:00am 15.5 10.6 6.8 56 4.3 NNW 22 32 12 17 - - 0.0
02/01:30am 15.3 11.7 6.8 57 4.2 NNW 15 24 8 13 - - 0.0
02/01:00am 15.1 12.1 6.1 55 4.3 NNW 11 17 6 9 - - 0.0
02/12:30am 15.3 10.7 5.8 53 4.6 NW 19 24 10 13 - - 0.0
02/12:00am 15.3 11.3 4.7 49 5.0 NW 15 22 8 12 - - 0.0
 
Date/Time
CST
Temp
°C
App
Temp
°C
Dew
Point
Rel
Hum
%
Delta-T
°C
Wind Press
QNH
hPa
Press
MSL
hPa
Rain
since 9 am
mm
Dir
 
Spd
km/h
Gust
km/h
Spd
kts
Gust
kts
01/11:30pm 15.5 12.2 4.8 49 5.0 NW 11 19 6 10 - - 0.0
01/11:00pm 15.4 12.4 3.9 46 5.3 WNW 9 19 5 10 - - 0.0
01/10:30pm 15.3 12.6 3.8 46 5.3 NW 7 13 4 7 - - 0.0
01/10:00pm 15.3 11.6 4.4 48 5.1 NW 13 19 7 10 - - 0.0
01/09:30pm 15.2 11.5 4.6 49 5.0 NW 13 22 7 12 - - 0.0
01/09:00pm 15.1 11.9 5.3 52 4.6 WNW 11 20 6 11 - - 0.0
01/08:30pm 14.9 12.2 5.7 54 4.4 WNW 9 15 5 8 - - 0.0
01/08:00pm 15.1 12.5 6.1 55 4.3 WNW 9 19 5 10 - - 0.0
01/07:30pm 15.2 11.9 6.2 55 4.4 NW 13 20 7 11 - - 0.0
01/07:00pm 15.4 13.3 5.6 52 4.7 WNW 6 9 3 5 - - 0.0
01/06:30pm 15.3 13.3 6.1 54 4.4 NW 6 9 3 5 - - 0.0
01/06:00pm 15.1 13.3 5.6 53 4.5 NW 4 6 2 3 - - 0.0
01/05:30pm 15.0 13.1 5.0 51 4.7 NW 4 7 2 4 - - 0.0
01/05:00pm 15.8 13.6 5.1 49 5.1 WNW 6 7 3 4 - - 0.0
01/04:30pm 16.7 14.3 4.4 44 5.8 NW 6 11 3 6 - - 0.0
01/04:00pm 17.1 14.8 5.7 47 5.5 NW 7 13 4 7 - - 0.0

Other Formats:

Comma delimited format used in spreadsheet applications
http://www.bom.gov.au/fwo/IDS60801/IDS60801.94808.axf

JavaScript Object Notation format (JSON) in row-major order
http://www.bom.gov.au/fwo/IDS60801/IDS60801.94808.json